sensor_id;sensor_type;location;lat;lon;timestamp;pressure;altitude;pressure_sealevel;temperature;humidity
29569;BME280;16501;51.462;14.346;2022-12-07T00:00:40;99896.56;;;0.91;100.00
29569;BME280;16501;51.462;14.346;2022-12-07T00:03:05;99858.22;;;0.70;100.00
29569;BME280;16501;51.462;14.346;2022-12-07T00:05:31;99879.78;;;0.79;100.00
29569;BME280;16501;51.462;14.346;2022-12-07T00:07:56;99878.16;;;0.81;100.00
29569;BME280;16501;51.462;14.346;2022-12-07T00:10:21;99881.91;;;0.94;100.00
29569;BME280;16501;51.462;14.346;2022-12-07T00:12:47;99834.63;;;0.65;100.00
29569;BME280;16501;51.462;14.346;2022-12-07T00:15:13;99868.63;;;0.86;100.00
29569;BME280;16501;51.462;14.346;2022-12-07T00:17:38;99834.22;;;0.67;100.00
29569;BME280;16501;51.462;14.346;2022-12-07T00:20:04;99833.75;;;0.72;100.00
29569;BME280;16501;51.462;14.346;2022-12-07T00:22:30;99792.97;;;0.56;100.00
29569;BME280;16501;51.462;14.346;2022-12-07T00:24:55;99858.16;;;1.01;100.00
29569;BME280;16501;51.462;14.346;2022-12-07T00:27:20;99842.91;;;0.92;100.00
29569;BME280;16501;51.462;14.346;2022-12-07T00:29:46;99879.38;;;1.07;100.00
29569;BME280;16501;51.462;14.346;2022-12-07T00:32:12;99799.53;;;0.66;100.00
29569;BME280;16501;51.462;14.346;2022-12-07T00:34:37;99824.41;;;0.89;100.00
29569;BME280;16501;51.462;14.346;2022-12-07T00:37:03;99746.31;;;0.38;100.00
29569;BME280;16501;51.462;14.346;2022-12-07T00:39:29;99845.22;;;0.94;100.00
29569;BME280;16501;51.462;14.346;2022-12-07T00:41:56;99850.72;;;0.98;100.00
29569;BME280;16501;51.462;14.346;2022-12-07T00:44:21;99807.69;;;0.73;100.00
29569;BME280;16501;51.462;14.346;2022-12-07T00:46:47;99839.34;;;0.92;100.00
29569;BME280;16501;51.462;14.346;2022-12-07T00:49:13;99796.28;;;0.71;100.00
29569;BME280;16501;51.462;14.346;2022-12-07T00:51:39;99814.38;;;0.75;100.00
29569;BME280;16501;51.462;14.346;2022-12-07T00:54:04;99842.53;;;0.90;100.00
29569;BME280;16501;51.462;14.346;2022-12-07T00:56:30;99817.19;;;0.72;100.00
29569;BME280;16501;51.462;14.346;2022-12-07T00:58:57;99828.00;;;0.86;100.00
29569;BME280;16501;51.462;14.346;2022-12-07T01:01:27;99853.69;;;1.10;100.00
29569;BME280;16501;51.462;14.346;2022-12-07T01:03:54;99820.09;;;0.88;100.00
29569;BME280;16501;51.462;14.346;2022-12-07T01:06:21;99847.00;;;1.08;100.00
29569;BME280;16501;51.462;14.346;2022-12-07T01:08:48;99835.19;;;1.07;100.00
29569;BME280;16501;51.462;14.346;2022-12-07T01:11:16;99816.97;;;0.86;100.00
29569;BME280;16501;51.462;14.346;2022-12-07T01:13:44;99857.22;;;1.11;100.00
29569;BME280;16501;51.462;14.346;2022-12-07T01:16:12;99834.94;;;0.98;100.00
29569;BME280;16501;51.462;14.346;2022-12-07T01:18:38;99845.16;;;1.01;100.00
29569;BME280;16501;51.462;14.346;2022-12-07T01:21:17;99835.59;;;1.06;100.00
29569;BME280;16501;51.462;14.346;2022-12-07T01:23:43;99849.47;;;1.02;100.00
29569;BME280;16501;51.462;14.346;2022-12-07T01:26:14;99853.44;;;1.01;100.00
29569;BME280;16501;51.462;14.346;2022-12-07T01:28:40;99765.00;;;0.54;100.00
29569;BME280;16501;51.462;14.346;2022-12-07T01:31:08;99812.69;;;0.82;100.00
29569;BME280;16501;51.462;14.346;2022-12-07T01:33:38;99856.44;;;1.10;100.00
29569;BME280;16501;51.462;14.346;2022-12-07T01:36:12;99855.66;;;1.10;100.00
29569;BME280;16501;51.462;14.346;2022-12-07T01:38:38;99784.19;;;0.65;100.00
29569;BME280;16501;51.462;14.346;2022-12-07T01:41:04;99840.09;;;0.96;100.00
29569;BME280;16501;51.462;14.346;2022-12-07T01:43:33;99852.53;;;1.08;100.00
29569;BME280;16501;51.462;14.346;2022-12-07T01:46:00;99822.06;;;0.88;100.00
29569;BME280;16501;51.462;14.346;2022-12-07T01:50:55;99805.78;;;0.70;100.00
29569;BME280;16501;51.462;14.346;2022-12-07T01:53:25;99813.59;;;0.75;100.00
29569;BME280;16501;51.462;14.346;2022-12-07T01:55:53;99814.47;;;0.68;100.00
29569;BME280;16501;51.462;14.346;2022-12-07T01:58:20;99870.81;;;0.98;100.00
29569;BME280;16501;51.462;14.346;2022-12-07T02:00:45;99844.47;;;0.93;100.00
29569;BME280;16501;51.462;14.346;2022-12-07T02:03:39;99806.34;;;0.58;100.00
29569;BME280;16501;51.462;14.346;2022-12-07T02:06:06;99818.69;;;0.77;100.00
29569;BME280;16501;51.462;14.346;2022-12-07T02:08:32;99801.09;;;0.67;100.00
29569;BME280;16501;51.462;14.346;2022-12-07T02:10:58;99819.25;;;0.64;100.00
29569;BME280;16501;51.462;14.346;2022-12-07T02:13:31;99801.81;;;0.71;100.00
29569;BME280;16501;51.462;14.346;2022-12-07T02:16:10;99803.44;;;0.68;100.00
29569;BME280;16501;51.462;14.346;2022-12-07T02:21:58;99841.75;;;0.90;100.00
29569;BME280;16501;51.462;14.346;2022-12-07T02:24:30;99841.34;;;0.91;100.00
29569;BME280;16501;51.462;14.346;2022-12-07T02:27:21;99838.22;;;0.89;100.00
29569;BME280;16501;51.462;14.346;2022-12-07T02:29:59;99850.03;;;0.90;100.00
29569;BME280;16501;51.462;14.346;2022-12-07T02:35:42;99847.38;;;0.83;100.00
29569;BME280;16501;51.462;14.346;2022-12-07T02:38:32;99844.16;;;0.88;100.00
29569;BME280;16501;51.462;14.346;2022-12-07T02:41:04;99857.53;;;0.89;100.00
29569;BME280;16501;51.462;14.346;2022-12-07T02:43:38;99787.06;;;0.54;100.00
29569;BME280;16501;51.462;14.346;2022-12-07T02:46:13;99830.50;;;0.77;100.00
29569;BME280;16501;51.462;14.346;2022-12-07T02:48:43;99828.22;;;0.72;100.00
29569;BME280;16501;51.462;14.346;2022-12-07T02:51:10;99822.66;;;0.75;100.00
29569;BME280;16501;51.462;14.346;2022-12-07T02:53:37;99801.97;;;0.60;100.00
29569;BME280;16501;51.462;14.346;2022-12-07T03:01:35;99749.63;;;0.26;100.00
29569;BME280;16501;51.462;14.346;2022-12-07T03:10:16;99812.53;;;0.65;100.00
29569;BME280;16501;51.462;14.346;2022-12-07T03:13:20;99840.28;;;0.54;100.00
29569;BME280;16501;51.462;14.346;2022-12-07T03:16:12;99818.16;;;0.58;100.00
29569;BME280;16501;51.462;14.346;2022-12-07T03:19:00;99818.28;;;0.51;100.00
29569;BME280;16501;51.462;14.346;2022-12-07T03:21:31;99781.19;;;0.25;100.00
29569;BME280;16501;51.462;14.346;2022-12-07T03:24:00;99817.94;;;0.45;100.00
29569;BME280;16501;51.462;14.346;2022-12-07T03:26:36;99825.78;;;0.47;100.00
29569;BME280;16501;51.462;14.346;2022-12-07T03:29:07;99810.13;;;0.40;100.00
29569;BME280;16501;51.462;14.346;2022-12-07T03:31:41;99769.59;;;0.06;100.00
29569;BME280;16501;51.462;14.346;2022-12-07T03:34:21;99801.94;;;0.33;100.00
29569;BME280;16501;51.462;14.346;2022-12-07T03:37:16;99793.31;;;0.31;100.00
29569;BME280;16501;51.462;14.346;2022-12-07T03:40:00;99789.41;;;0.28;100.00
29569;BME280;16501;51.462;14.346;2022-12-07T03:42:27;99764.09;;;0.06;100.00
29569;BME280;16501;51.462;14.346;2022-12-07T03:44:53;99786.41;;;0.15;100.00
29569;BME280;16501;51.462;14.346;2022-12-07T03:47:36;99810.09;;;0.44;100.00
29569;BME280;16501;51.462;14.346;2022-12-07T03:51:00;99791.81;;;0.23;100.00
29569;BME280;16501;51.462;14.346;2022-12-07T03:53:05;99748.38;;;0.03;100.00
29569;BME280;16501;51.462;14.346;2022-12-07T03:55:36;99759.19;;;0.21;100.00
29569;BME280;16501;51.462;14.346;2022-12-07T03:58:06;99784.09;;;0.41;100.00
29569;BME280;16501;51.462;14.346;2022-12-07T04:00:33;99750.66;;;0.08;100.00
29569;BME280;16501;51.462;14.346;2022-12-07T04:02:59;99763.16;;;0.16;100.00
29569;BME280;16501;51.462;14.346;2022-12-07T04:05:24;99772.44;;;0.30;100.00
29569;BME280;16501;51.462;14.346;2022-12-07T04:07:51;99716.84;;;0.04;100.00
29569;BME280;16501;51.462;14.346;2022-12-07T04:10:17;99737.88;;;0.22;100.00
29569;BME280;16501;51.462;14.346;2022-12-07T04:12:43;99735.69;;;0.09;100.00
29569;BME280;16501;51.462;14.346;2022-12-07T04:15:08;99769.81;;;0.19;100.00
29569;BME280;16501;51.462;14.346;2022-12-07T04:17:34;99696.41;;;0.02;100.00
29569;BME280;16501;51.462;14.346;2022-12-07T04:19:59;99737.44;;;0.27;100.00
29569;BME280;16501;51.462;14.346;2022-12-07T04:22:24;99749.59;;;0.29;100.00
29569;BME280;16501;51.462;14.346;2022-12-07T04:24:50;99678.72;;;-0.01;100.00
29569;BME280;16501;51.462;14.346;2022-12-07T04:27:16;99736.97;;;0.32;100.00
29569;BME280;16501;51.462;14.346;2022-12-07T04:29:41;99728.28;;;0.33;100.00
29569;BME280;16501;51.462;14.346;2022-12-07T04:32:09;99718.19;;;0.23;100.00
29569;BME280;16501;51.462;14.346;2022-12-07T04:34:35;99692.72;;;0.12;100.00
29569;BME280;16501;51.462;14.346;2022-12-07T04:37:00;99674.03;;;-0.04;100.00
29569;BME280;16501;51.462;14.346;2022-12-07T04:39:29;99711.91;;;0.19;100.00
29569;BME280;16501;51.462;14.346;2022-12-07T04:41:55;99726.75;;;0.29;100.00
29569;BME280;16501;51.462;14.346;2022-12-07T04:44:21;99730.88;;;0.44;100.00
29569;BME280;16501;51.462;14.346;2022-12-07T04:46:49;99663.66;;;0.07;100.00
29569;BME280;16501;51.462;14.346;2022-12-07T04:49:15;99737.06;;;0.52;100.00
29569;BME280;16501;51.462;14.346;2022-12-07T04:51:41;99693.72;;;0.25;100.00
29569;BME280;16501;51.462;14.346;2022-12-07T04:54:06;99717.34;;;0.53;100.00
29569;BME280;16501;51.462;14.346;2022-12-07T04:56:32;99703.41;;;0.37;100.00
29569;BME280;16501;51.462;14.346;2022-12-07T04:58:59;99702.19;;;0.38;100.00
29569;BME280;16501;51.462;14.346;2022-12-07T05:01:26;99706.88;;;0.41;100.00
29569;BME280;16501;51.462;14.346;2022-12-07T05:03:51;99645.88;;;-0.15;100.00
29569;BME280;16501;51.462;14.346;2022-12-07T05:06:17;99667.19;;;0.08;100.00
29569;BME280;16501;51.462;14.346;2022-12-07T05:08:43;99591.66;;;-0.53;100.00
29569;BME280;16501;51.462;14.346;2022-12-07T05:11:10;99685.09;;;0.23;100.00
29569;BME280;16501;51.462;14.346;2022-12-07T05:13:55;99695.75;;;0.21;100.00
29569;BME280;16501;51.462;14.346;2022-12-07T05:16:21;99657.03;;;0.01;100.00
29569;BME280;16501;51.462;14.346;2022-12-07T05:18:46;99664.44;;;0.08;100.00
29569;BME280;16501;51.462;14.346;2022-12-07T05:21:13;99675.41;;;0.11;100.00
29569;BME280;16501;51.462;14.346;2022-12-07T05:23:38;99681.00;;;0.31;100.00
29569;BME280;16501;51.462;14.346;2022-12-07T05:26:03;99705.28;;;0.44;100.00
29569;BME280;16501;51.462;14.346;2022-12-07T05:28:29;99683.53;;;0.22;100.00
29569;BME280;16501;51.462;14.346;2022-12-07T05:30:54;99646.72;;;0.09;100.00
29569;BME280;16501;51.462;14.346;2022-12-07T05:33:20;99621.88;;;-0.18;100.00
29569;BME280;16501;51.462;14.346;2022-12-07T05:35:46;99699.03;;;0.40;100.00
29569;BME280;16501;51.462;14.346;2022-12-07T05:38:12;99674.25;;;0.36;100.00
29569;BME280;16501;51.462;14.346;2022-12-07T05:40:37;99664.47;;;0.31;100.00
29569;BME280;16501;51.462;14.346;2022-12-07T05:43:03;99676.94;;;0.40;100.00
29569;BME280;16501;51.462;14.346;2022-12-07T05:45:31;99684.22;;;0.30;100.00
29569;BME280;16501;51.462;14.346;2022-12-07T05:47:56;99652.25;;;0.05;100.00
29569;BME280;16501;51.462;14.346;2022-12-07T05:50:23;99653.25;;;0.18;100.00
29569;BME280;16501;51.462;14.346;2022-12-07T05:52:48;99682.53;;;0.36;100.00
29569;BME280;16501;51.462;14.346;2022-12-07T05:55:16;99656.00;;;0.18;100.00
29569;BME280;16501;51.462;14.346;2022-12-07T05:57:41;99668.50;;;0.27;100.00
29569;BME280;16501;51.462;14.346;2022-12-07T06:00:26;99644.97;;;0.18;100.00
29569;BME280;16501;51.462;14.346;2022-12-07T06:02:52;99589.06;;;-0.09;100.00
29569;BME280;16501;51.462;14.346;2022-12-07T06:05:17;99623.78;;;0.12;100.00
29569;BME280;16501;51.462;14.346;2022-12-07T06:07:42;99581.63;;;-0.12;100.00
29569;BME280;16501;51.462;14.346;2022-12-07T06:10:08;99610.34;;;-0.10;100.00
29569;BME280;16501;51.462;14.346;2022-12-07T06:12:35;99627.50;;;0.02;100.00
29569;BME280;16501;51.462;14.346;2022-12-07T06:15:02;99613.41;;;-0.04;100.00
29569;BME280;16501;51.462;14.346;2022-12-07T06:17:28;99592.66;;;-0.12;100.00
29569;BME280;16501;51.462;14.346;2022-12-07T06:19:54;99595.25;;;-0.29;100.00
29569;BME280;16501;51.462;14.346;2022-12-07T06:22:19;99620.97;;;-0.08;100.00
29569;BME280;16501;51.462;14.346;2022-12-07T06:24:44;99647.38;;;0.16;100.00
29569;BME280;16501;51.462;14.346;2022-12-07T06:27:10;99640.81;;;0.07;100.00
29569;BME280;16501;51.462;14.346;2022-12-07T06:29:35;99629.84;;;0.03;100.00
29569;BME280;16501;51.462;14.346;2022-12-07T06:32:02;99629.38;;;0.08;100.00
29569;BME280;16501;51.462;14.346;2022-12-07T06:34:27;99637.28;;;0.06;100.00
29569;BME280;16501;51.462;14.346;2022-12-07T06:36:53;99633.41;;;0.04;100.00
29569;BME280;16501;51.462;14.346;2022-12-07T06:39:27;99659.53;;;0.19;100.00
29569;BME280;16501;51.462;14.346;2022-12-07T06:41:53;99620.16;;;-0.09;100.00
29569;BME280;16501;51.462;14.346;2022-12-07T06:44:19;99651.19;;;0.23;100.00
29569;BME280;16501;51.462;14.346;2022-12-07T06:46:47;99623.19;;;0.01;100.00
29569;BME280;16501;51.462;14.346;2022-12-07T06:49:13;99650.53;;;0.15;100.00
29569;BME280;16501;51.462;14.346;2022-12-07T06:51:39;99629.31;;;0.12;100.00
29569;BME280;16501;51.462;14.346;2022-12-07T06:54:12;99617.94;;;0.10;100.00
29569;BME280;16501;51.462;14.346;2022-12-07T06:56:39;99552.69;;;-0.24;100.00
29569;BME280;16501;51.462;14.346;2022-12-07T06:59:05;99599.16;;;0.01;100.00
29569;BME280;16501;51.462;14.346;2022-12-07T07:01:32;99634.09;;;0.08;100.00
29569;BME280;16501;51.462;14.346;2022-12-07T07:03:59;99571.13;;;-0.21;100.00
29569;BME280;16501;51.462;14.346;2022-12-07T07:06:24;99609.78;;;0.03;100.00
29569;BME280;16501;51.462;14.346;2022-12-07T07:08:50;99632.13;;;0.08;100.00
29569;BME280;16501;51.462;14.346;2022-12-07T07:11:15;99625.47;;;0.06;100.00
29569;BME280;16501;51.462;14.346;2022-12-07T07:13:40;99632.94;;;0.05;100.00
29569;BME280;16501;51.462;14.346;2022-12-07T07:16:06;99644.97;;;0.18;100.00
29569;BME280;16501;51.462;14.346;2022-12-07T07:18:32;99640.38;;;0.08;100.00
29569;BME280;16501;51.462;14.346;2022-12-07T07:20:58;99635.09;;;0.21;100.00
29569;BME280;16501;51.462;14.346;2022-12-07T07:23:23;99638.69;;;0.18;100.00
29569;BME280;16501;51.462;14.346;2022-12-07T07:25:49;99614.63;;;-0.05;100.00
29569;BME280;16501;51.462;14.346;2022-12-07T07:28:15;99590.84;;;-0.23;100.00
29569;BME280;16501;51.462;14.346;2022-12-07T07:30:42;99603.59;;;-0.05;100.00
29569;BME280;16501;51.462;14.346;2022-12-07T07:33:10;99612.28;;;-0.07;100.00
29569;BME280;16501;51.462;14.346;2022-12-07T07:35:35;99622.25;;;0.11;100.00
29569;BME280;16501;51.462;14.346;2022-12-07T07:38:01;99622.03;;;-0.02;100.00
29569;BME280;16501;51.462;14.346;2022-12-07T07:40:27;99635.16;;;0.17;100.00
29569;BME280;16501;51.462;14.346;2022-12-07T07:42:57;99620.75;;;0.06;100.00
29569;BME280;16501;51.462;14.346;2022-12-07T07:45:24;99613.66;;;0.05;100.00
29569;BME280;16501;51.462;14.346;2022-12-07T07:47:50;99613.00;;;-0.03;100.00
29569;BME280;16501;51.462;14.346;2022-12-07T07:50:17;99544.16;;;-0.33;100.00
29569;BME280;16501;51.462;14.346;2022-12-07T07:52:44;99626.03;;;0.21;100.00
29569;BME280;16501;51.462;14.346;2022-12-07T07:55:09;99592.53;;;-0.02;100.00
29569;BME280;16501;51.462;14.346;2022-12-07T07:57:36;99636.22;;;0.24;100.00
29569;BME280;16501;51.462;14.346;2022-12-07T08:00:07;99617.41;;;0.18;100.00
29569;BME280;16501;51.462;14.346;2022-12-07T08:02:33;99617.56;;;0.08;100.00
29569;BME280;16501;51.462;14.346;2022-12-07T08:04:58;99583.09;;;-0.04;100.00
29569;BME280;16501;51.462;14.346;2022-12-07T08:07:24;99616.69;;;0.14;100.00
29569;BME280;16501;51.462;14.346;2022-12-07T08:09:50;99621.25;;;0.25;100.00
29569;BME280;16501;51.462;14.346;2022-12-07T08:12:15;99584.19;;;0.02;100.00
29569;BME280;16501;51.462;14.346;2022-12-07T08:14:42;99623.59;;;0.26;100.00
29569;BME280;16501;51.462;14.346;2022-12-07T08:17:07;99577.47;;;0.03;100.00
29569;BME280;16501;51.462;14.346;2022-12-07T08:19:34;99587.66;;;0.06;100.00
29569;BME280;16501;51.462;14.346;2022-12-07T08:22:00;99594.28;;;0.12;100.00
29569;BME280;16501;51.462;14.346;2022-12-07T08:24:25;99603.19;;;0.20;100.00
29569;BME280;16501;51.462;14.346;2022-12-07T08:26:51;99616.81;;;0.31;100.00
29569;BME280;16501;51.462;14.346;2022-12-07T08:29:18;99608.59;;;0.27;100.00
29569;BME280;16501;51.462;14.346;2022-12-07T08:31:44;99633.31;;;0.34;100.00
29569;BME280;16501;51.462;14.346;2022-12-07T08:34:11;99565.59;;;0.06;100.00
29569;BME280;16501;51.462;14.346;2022-12-07T08:36:37;99610.94;;;0.29;100.00
29569;BME280;16501;51.462;14.346;2022-12-07T08:39:03;99626.34;;;0.50;100.00
29569;BME280;16501;51.462;14.346;2022-12-07T08:41:29;99637.41;;;0.50;100.00
29569;BME280;16501;51.462;14.346;2022-12-07T08:43:55;99617.78;;;0.44;100.00
29569;BME280;16501;51.462;14.346;2022-12-07T08:46:52;99625.22;;;0.47;100.00
29569;BME280;16501;51.462;14.346;2022-12-07T08:49:26;99631.88;;;0.50;100.00
29569;BME280;16501;51.462;14.346;2022-12-07T08:51:54;99628.34;;;0.49;100.00
29569;BME280;16501;51.462;14.346;2022-12-07T08:54:22;99642.00;;;0.56;100.00
29569;BME280;16501;51.462;14.346;2022-12-07T08:56:48;99577.91;;;0.25;100.00
29569;BME280;16501;51.462;14.346;2022-12-07T08:59:17;99597.50;;;0.31;100.00
29569;BME280;16501;51.462;14.346;2022-12-07T09:01:44;99628.81;;;0.44;100.00
29569;BME280;16501;51.462;14.346;2022-12-07T09:04:09;99625.09;;;0.54;100.00
29569;BME280;16501;51.462;14.346;2022-12-07T09:06:36;99657.56;;;0.70;100.00
29569;BME280;16501;51.462;14.346;2022-12-07T09:09:03;99659.53;;;0.70;100.00
29569;BME280;16501;51.462;14.346;2022-12-07T09:11:29;99657.31;;;0.85;100.00
29569;BME280;16501;51.462;14.346;2022-12-07T09:13:55;99654.06;;;0.90;100.00
29569;BME280;16501;51.462;14.346;2022-12-07T09:16:21;99659.50;;;0.93;100.00
29569;BME280;16501;51.462;14.346;2022-12-07T09:18:49;99612.69;;;0.66;100.00
29569;BME280;16501;51.462;14.346;2022-12-07T09:21:14;99669.72;;;0.97;100.00
29569;BME280;16501;51.462;14.346;2022-12-07T09:23:41;99614.31;;;0.64;100.00
29569;BME280;16501;51.462;14.346;2022-12-07T09:26:07;99646.13;;;0.92;100.00
29569;BME280;16501;51.462;14.346;2022-12-07T09:28:33;99590.84;;;0.52;100.00
29569;BME280;16501;51.462;14.346;2022-12-07T09:31:00;99648.47;;;0.93;100.00
29569;BME280;16501;51.462;14.346;2022-12-07T09:33:25;99639.47;;;0.89;100.00
29569;BME280;16501;51.462;14.346;2022-12-07T09:35:51;99639.78;;;0.95;100.00
29569;BME280;16501;51.462;14.346;2022-12-07T09:38:19;99610.03;;;0.83;100.00
29569;BME280;16501;51.462;14.346;2022-12-07T09:40:45;99645.81;;;1.10;100.00
29569;BME280;16501;51.462;14.346;2022-12-07T09:43:19;99623.75;;;0.86;100.00
29569;BME280;16501;51.462;14.346;2022-12-07T09:45:48;99622.78;;;0.97;100.00
29569;BME280;16501;51.462;14.346;2022-12-07T09:48:25;99598.22;;;0.82;100.00
29569;BME280;16501;51.462;14.346;2022-12-07T09:50:55;99623.84;;;1.03;100.00
29569;BME280;16501;51.462;14.346;2022-12-07T09:53:26;99618.28;;;1.06;100.00
29569;BME280;16501;51.462;14.346;2022-12-07T09:55:53;99601.91;;;0.96;100.00
29569;BME280;16501;51.462;14.346;2022-12-07T09:58:23;99618.69;;;1.05;100.00
29569;BME280;16501;51.462;14.346;2022-12-07T10:01:19;99609.63;;;1.04;100.00
29569;BME280;16501;51.462;14.346;2022-12-07T10:03:53;99626.63;;;1.23;100.00
29569;BME280;16501;51.462;14.346;2022-12-07T10:06:19;99591.78;;;0.89;100.00
29569;BME280;16501;51.462;14.346;2022-12-07T10:08:45;99529.25;;;0.59;100.00
29569;BME280;16501;51.462;14.346;2022-12-07T10:11:12;99602.47;;;1.07;100.00
29569;BME280;16501;51.462;14.346;2022-12-07T10:18:49;99598.75;;;1.17;100.00
29569;BME280;16501;51.462;14.346;2022-12-07T10:21:22;99617.28;;;1.37;100.00
29569;BME280;16501;51.462;14.346;2022-12-07T10:26:38;99561.63;;;0.98;100.00
29569;BME280;16501;51.462;14.346;2022-12-07T10:31:39;99614.28;;;1.47;100.00
29569;BME280;16501;51.462;14.346;2022-12-07T10:34:20;99602.69;;;1.36;100.00
29569;BME280;16501;51.462;14.346;2022-12-07T10:36:46;99571.47;;;1.19;100.00
29569;BME280;16501;51.462;14.346;2022-12-07T10:39:22;99637.41;;;1.57;100.00
29569;BME280;16501;51.462;14.346;2022-12-07T10:42:01;99620.25;;;1.46;100.00
29569;BME280;16501;51.462;14.346;2022-12-07T10:44:29;99604.97;;;1.41;100.00
29569;BME280;16501;51.462;14.346;2022-12-07T10:47:07;99623.84;;;1.63;100.00
29569;BME280;16501;51.462;14.346;2022-12-07T10:50:11;99578.75;;;1.29;100.00
29569;BME280;16501;51.462;14.346;2022-12-07T11:01:19;99630.50;;;1.65;100.00
29569;BME280;16501;51.462;14.346;2022-12-07T11:04:12;99632.06;;;1.66;100.00
29569;BME280;16501;51.462;14.346;2022-12-07T11:09:51;99600.84;;;1.49;100.00
29569;BME280;16501;51.462;14.346;2022-12-07T11:15:39;99623.44;;;1.64;100.00
29569;BME280;16501;51.462;14.346;2022-12-07T11:18:22;99604.66;;;1.56;100.00
29569;BME280;16501;51.462;14.346;2022-12-07T11:26:24;99598.50;;;1.48;100.00
29569;BME280;16501;51.462;14.346;2022-12-07T11:29:09;99613.13;;;1.85;100.00
29569;BME280;16501;51.462;14.346;2022-12-07T11:32:22;99585.16;;;1.63;100.00
29569;BME280;16501;51.462;14.346;2022-12-07T11:37:35;99570.34;;;1.53;100.00
29569;BME280;16501;51.462;14.346;2022-12-07T11:42:39;99587.19;;;1.79;100.00
29569;BME280;16501;51.462;14.346;2022-12-07T11:45:20;99569.19;;;1.70;100.00
29569;BME280;16501;51.462;14.346;2022-12-07T11:53:04;99554.59;;;1.70;100.00
29569;BME280;16501;51.462;14.346;2022-12-07T12:04:18;99553.25;;;1.95;100.00
29569;BME280;16501;51.462;14.346;2022-12-07T12:06:47;99540.19;;;1.79;100.00
29569;BME280;16501;51.462;14.346;2022-12-07T12:09:33;99600.44;;;2.20;100.00
29569;BME280;16501;51.462;14.346;2022-12-07T12:12:08;99596.03;;;2.23;100.00
29569;BME280;16501;51.462;14.346;2022-12-07T12:14:43;99588.94;;;2.22;100.00
29569;BME280;16501;51.462;14.346;2022-12-07T12:23:05;99568.22;;;1.97;100.00
29569;BME280;16501;51.462;14.346;2022-12-07T12:25:43;99592.22;;;2.17;100.00
29569;BME280;16501;51.462;14.346;2022-12-07T12:33:32;99540.03;;;1.86;100.00
29569;BME280;16501;51.462;14.346;2022-12-07T12:36:20;99555.56;;;1.96;100.00
29569;BME280;16501;51.462;14.346;2022-12-07T12:47:04;99553.34;;;2.07;100.00
29569;BME280;16501;51.462;14.346;2022-12-07T12:50:39;99584.97;;;2.23;100.00
29569;BME280;16501;51.462;14.346;2022-12-07T12:58:48;99591.56;;;2.13;100.00
29569;BME280;16501;51.462;14.346;2022-12-07T13:03:56;99585.03;;;2.19;100.00
29569;BME280;16501;51.462;14.346;2022-12-07T13:08:53;99558.78;;;1.95;100.00
29569;BME280;16501;51.462;14.346;2022-12-07T13:11:29;99560.44;;;1.92;100.00
29569;BME280;16501;51.462;14.346;2022-12-07T13:17:08;99579.88;;;2.05;100.00
29569;BME280;16501;51.462;14.346;2022-12-07T13:24:57;99598.44;;;2.21;100.00
29569;BME280;16501;51.462;14.346;2022-12-07T13:27:25;99560.94;;;2.03;100.00
29569;BME280;16501;51.462;14.346;2022-12-07T13:29:54;99553.75;;;1.73;100.00
29569;BME280;16501;51.462;14.346;2022-12-07T13:32:27;99568.81;;;2.05;100.00
29569;BME280;16501;51.462;14.346;2022-12-07T13:34:55;99517.41;;;1.38;100.00
29569;BME280;16501;51.462;14.346;2022-12-07T13:39:59;99589.03;;;2.18;100.00
29569;BME280;16501;51.462;14.346;2022-12-07T13:42:29;99584.38;;;2.15;100.00
29569;BME280;16501;51.462;14.346;2022-12-07T13:44:56;99582.88;;;2.11;100.00
29569;BME280;16501;51.462;14.346;2022-12-07T13:50:20;99584.44;;;2.12;100.00
29569;BME280;16501;51.462;14.346;2022-12-07T13:52:47;99505.94;;;1.40;100.00
29569;BME280;16501;51.462;14.346;2022-12-07T13:55:15;99566.81;;;1.89;100.00
29569;BME280;16501;51.462;14.346;2022-12-07T13:57:44;99561.69;;;1.87;100.00
29569;BME280;16501;51.462;14.346;2022-12-07T14:00:21;99598.09;;;2.02;100.00
29569;BME280;16501;51.462;14.346;2022-12-07T14:05:25;99580.22;;;2.07;100.00
29569;BME280;16501;51.462;14.346;2022-12-07T14:11:04;99589.81;;;2.02;100.00
29569;BME280;16501;51.462;14.346;2022-12-07T14:13:44;99579.56;;;1.83;100.00
29569;BME280;16501;51.462;14.346;2022-12-07T14:16:25;99594.53;;;2.02;100.00
29569;BME280;16501;51.462;14.346;2022-12-07T14:18:51;99539.94;;;1.73;100.00
29569;BME280;16501;51.462;14.346;2022-12-07T14:21:21;99586.00;;;1.96;100.00
29569;BME280;16501;51.462;14.346;2022-12-07T14:24:11;99530.47;;;1.54;100.00
29569;BME280;16501;51.462;14.346;2022-12-07T14:26:40;99557.53;;;1.79;100.00
29569;BME280;16501;51.462;14.346;2022-12-07T14:31:49;99594.75;;;2.11;100.00
29569;BME280;16501;51.462;14.346;2022-12-07T14:34:16;99501.28;;;1.53;100.00
29569;BME280;16501;51.462;14.346;2022-12-07T14:36:41;99566.63;;;1.80;100.00
29569;BME280;16501;51.462;14.346;2022-12-07T14:39:07;99569.91;;;1.91;100.00
29569;BME280;16501;51.462;14.346;2022-12-07T14:41:32;99574.94;;;1.80;100.00
29569;BME280;16501;51.462;14.346;2022-12-07T14:44:17;99549.16;;;1.66;100.00
29569;BME280;16501;51.462;14.346;2022-12-07T14:46:42;99599.56;;;1.91;100.00
29569;BME280;16501;51.462;14.346;2022-12-07T14:49:07;99620.41;;;1.95;100.00
29569;BME280;16501;51.462;14.346;2022-12-07T14:51:38;99578.56;;;1.93;100.00
29569;BME280;16501;51.462;14.346;2022-12-07T14:54:06;99498.16;;;1.35;100.00
29569;BME280;16501;51.462;14.346;2022-12-07T14:56:38;99523.72;;;1.39;100.00
29569;BME280;16501;51.462;14.346;2022-12-07T14:59:04;99530.22;;;1.48;100.00
29569;BME280;16501;51.462;14.346;2022-12-07T15:01:29;99505.38;;;1.28;100.00
29569;BME280;16501;51.462;14.346;2022-12-07T15:03:55;99592.59;;;1.66;100.00
29569;BME280;16501;51.462;14.346;2022-12-07T15:06:21;99584.59;;;1.88;100.00